N770XJ EDDF-LIMC
Flight info
| Callsign | N770XJ |
|---|---|
| Flight time | N/A |
| Altitude | 31000 |
| Route | ANEKI2L ANEKI Y163 PABLA/N0497F330 Y163 NATOR DCT DITON DCT BASGO Z424 RIXUV |
| Aircraft | C750/M-SBDE3FGHRWXY/S |
Departure
| Time | 2026-05-05 20:18 |
|---|---|
| Airport | Frankfurt Main Airport (EDDF) |
Arrival
| Time | N/A |
|---|---|
| Airport | Milan Malpensa International Airport (LIMC) |
| Time | Latitude | Longitude | Altitude | Speed | Heading |
|---|---|---|---|---|---|
| 2026-05-05 19:57 | 50.02246 | 8.53081 | 332 ft | 0 kts | 340° |
| 2026-05-05 20:11 | 50.02250 | 8.53086 | 328 ft | 0 kts | 44° |
| 2026-05-05 20:11 | 50.02247 | 8.53091 | 329 ft | 0 kts | 131° |
| 2026-05-05 20:11 | 50.02244 | 8.53091 | 329 ft | 0 kts | 159° |
| 2026-05-05 20:12 | 50.02242 | 8.53092 | 329 ft | 0 kts | 159° |
| 2026-05-05 20:12 | 50.02235 | 8.53096 | 330 ft | 5 kts | 159° |
| 2026-05-05 20:13 | 50.02172 | 8.53086 | 329 ft | 14 kts | 201° |
| 2026-05-05 20:13 | 50.02149 | 8.52940 | 332 ft | 17 kts | 269° |
| 2026-05-05 20:13 | 50.02191 | 8.52830 | 332 ft | 15 kts | 0° |
| 2026-05-05 20:13 | 50.02305 | 8.52831 | 332 ft | 17 kts | 4° |
| 2026-05-05 20:14 | 50.02371 | 8.52963 | 330 ft | 16 kts | 71° |
| 2026-05-05 20:14 | 50.02418 | 8.52994 | 330 ft | 0 kts | 306° |
| 2026-05-05 20:15 | 50.02426 | 8.52973 | 329 ft | 6 kts | 302° |
| 2026-05-05 20:15 | 50.02460 | 8.52890 | 331 ft | 11 kts | 306° |
| 2026-05-05 20:15 | 50.02543 | 8.52825 | 332 ft | 17 kts | 1° |
| 2026-05-05 20:15 | 50.02669 | 8.52825 | 332 ft | 19 kts | 360° |
| 2026-05-05 20:16 | 50.02800 | 8.52824 | 332 ft | 19 kts | 359° |
| 2026-05-05 20:16 | 50.02921 | 8.52812 | 331 ft | 13 kts | 329° |
| 2026-05-05 20:16 | 50.02941 | 8.52689 | 332 ft | 12 kts | 269° |
| 2026-05-05 20:16 | 50.02941 | 8.52609 | 332 ft | 2 kts | 265° |
| 2026-05-05 20:17 | 50.02921 | 8.52596 | 330 ft | 6 kts | 179° |
| 2026-05-05 20:17 | 50.02915 | 8.52597 | 332 ft | 11 kts | 179° |
| 2026-05-05 20:17 | 50.02454 | 8.52604 | 332 ft | 119 kts | 179° |
| 2026-05-05 20:17 | 50.01436 | 8.52626 | 373 ft | 168 kts | 179° |
| 2026-05-05 20:18 | 50.00149 | 8.52639 | 633 ft | 196 kts | 180° |
| 2026-05-05 20:18 | 49.98772 | 8.52631 | 1306 ft | 199 kts | 181° |
| 2026-05-05 20:18 | 49.97421 | 8.52666 | 2200 ft | 194 kts | 181° |
| 2026-05-05 20:18 | 49.96063 | 8.52697 | 2980 ft | 199 kts | 182° |
| 2026-05-05 20:19 | 49.94655 | 8.52715 | 3691 ft | 205 kts | 182° |
| 2026-05-05 20:19 | 49.93229 | 8.52739 | 4045 ft | 201 kts | 182° |
| 2026-05-05 20:19 | 49.91806 | 8.52754 | 3978 ft | 205 kts | 182° |
| 2026-05-05 20:19 | 49.90372 | 8.52768 | 3981 ft | 206 kts | 182° |
| 2026-05-05 20:20 | 49.88923 | 8.52782 | 4009 ft | 214 kts | 182° |
| 2026-05-05 20:20 | 49.87453 | 8.52834 | 4886 ft | 205 kts | 180° |
| 2026-05-05 20:20 | 49.86028 | 8.53043 | 5590 ft | 209 kts | 177° |
| 2026-05-05 20:20 | 49.84565 | 8.53275 | 6242 ft | 212 kts | 178° |
| 2026-05-05 20:21 | 49.83062 | 8.53479 | 6687 ft | 232 kts | 178° |
| 2026-05-05 20:21 | 49.81424 | 8.53696 | 7535 ft | 236 kts | 178° |
| 2026-05-05 20:21 | 49.79784 | 8.53923 | 8536 ft | 239 kts | 178° |
| 2026-05-05 20:21 | 49.78115 | 8.54123 | 9441 ft | 242 kts | 181° |
| 2026-05-05 20:22 | 49.76374 | 8.53932 | 9868 ft | 263 kts | 188° |
| 2026-05-05 20:22 | 49.74465 | 8.53637 | 10149 ft | 286 kts | 187° |
| 2026-05-05 20:22 | 49.72393 | 8.53357 | 10286 ft | 312 kts | 187° |
| 2026-05-05 20:22 | 49.70139 | 8.53077 | 10321 ft | 337 kts | 186° |
| 2026-05-05 20:23 | 49.67775 | 8.52772 | 10844 ft | 342 kts | 187° |
| 2026-05-05 20:23 | 49.65401 | 8.52454 | 11505 ft | 344 kts | 187° |
| 2026-05-05 20:23 | 49.63044 | 8.52140 | 12130 ft | 346 kts | 187° |
| 2026-05-05 20:23 | 49.60635 | 8.51824 | 12717 ft | 349 kts | 187° |
| 2026-05-05 20:24 | 49.58205 | 8.51505 | 13305 ft | 352 kts | 187° |
| 2026-05-05 20:24 | 49.55755 | 8.51182 | 13855 ft | 355 kts | 187° |
| 2026-05-05 20:24 | 49.53284 | 8.50857 | 14395 ft | 358 kts | 187° |
| 2026-05-05 20:24 | 49.50789 | 8.50530 | 14905 ft | 361 kts | 187° |
| 2026-05-05 20:25 | 49.48276 | 8.50201 | 15397 ft | 364 kts | 186° |
| 2026-05-05 20:25 | 49.45739 | 8.49868 | 15910 ft | 367 kts | 186° |
| 2026-05-05 20:25 | 49.43179 | 8.49533 | 16434 ft | 370 kts | 186° |
| 2026-05-05 20:25 | 49.40616 | 8.49198 | 17091 ft | 370 kts | 186° |
| 2026-05-05 20:26 | 49.38075 | 8.48866 | 17656 ft | 373 kts | 186° |
| 2026-05-05 20:26 | 49.35476 | 8.48527 | 18237 ft | 376 kts | 186° |
| 2026-05-05 20:26 | 49.32858 | 8.48186 | 18765 ft | 379 kts | 186° |
| 2026-05-05 20:26 | 49.30218 | 8.47842 | 19306 ft | 382 kts | 185° |
| 2026-05-05 20:27 | 49.27559 | 8.47498 | 19852 ft | 385 kts | 185° |
| 2026-05-05 20:27 | 49.24879 | 8.47150 | 20405 ft | 388 kts | 185° |
| 2026-05-05 20:27 | 49.22178 | 8.46797 | 20945 ft | 391 kts | 185° |
| 2026-05-05 20:27 | 49.19458 | 8.46443 | 21536 ft | 393 kts | 185° |
| 2026-05-05 20:28 | 49.16727 | 8.46089 | 22081 ft | 396 kts | 185° |
| 2026-05-05 20:28 | 49.13967 | 8.45731 | 22604 ft | 399 kts | 185° |
| 2026-05-05 20:28 | 49.11201 | 8.45372 | 23130 ft | 402 kts | 185° |
| 2026-05-05 20:28 | 49.08394 | 8.45009 | 23608 ft | 405 kts | 185° |
| 2026-05-05 20:29 | 49.05587 | 8.44492 | 24008 ft | 408 kts | 191° |
| 2026-05-05 20:29 | 49.02816 | 8.43488 | 24451 ft | 410 kts | 193° |
| 2026-05-05 20:29 | 49.00028 | 8.42512 | 24903 ft | 412 kts | 192° |
| 2026-05-05 20:29 | 48.97259 | 8.41582 | 25411 ft | 413 kts | 192° |
| 2026-05-05 20:30 | 48.94453 | 8.40612 | 25854 ft | 415 kts | 192° |
| 2026-05-05 20:30 | 48.91621 | 8.39609 | 26284 ft | 418 kts | 192° |
| 2026-05-05 20:30 | 48.88790 | 8.38622 | 26729 ft | 420 kts | 192° |
| 2026-05-05 20:30 | 48.85928 | 8.37641 | 27175 ft | 423 kts | 192° |
| 2026-05-05 20:31 | 48.83050 | 8.36648 | 27622 ft | 426 kts | 192° |
| 2026-05-05 20:31 | 48.80153 | 8.35640 | 28085 ft | 429 kts | 193° |
| 2026-05-05 20:31 | 48.77236 | 8.34625 | 28544 ft | 431 kts | 193° |
| 2026-05-05 20:31 | 48.74361 | 8.33572 | 29095 ft | 431 kts | 194° |
| 2026-05-05 20:32 | 48.71439 | 8.32471 | 29475 ft | 435 kts | 194° |
| 2026-05-05 20:32 | 48.68486 | 8.31389 | 29917 ft | 438 kts | 194° |
| 2026-05-05 20:32 | 48.65510 | 8.30324 | 30264 ft | 441 kts | 194° |
| 2026-05-05 20:32 | 48.62521 | 8.29241 | 30633 ft | 443 kts | 194° |
| 2026-05-05 20:33 | 48.59569 | 8.28159 | 30972 ft | 427 kts | 194° |
| 2026-05-05 20:33 | 48.53781 | 8.26057 | 31031 ft | 426 kts | 194° |
| 2026-05-05 20:34 | 48.47908 | 8.24934 | 31032 ft | 428 kts | 180° |
| 2026-05-05 20:34 | 48.42033 | 8.26084 | 31049 ft | 430 kts | 172° |
| 2026-05-05 20:35 | 48.36127 | 8.27494 | 31063 ft | 430 kts | 172° |
| 2026-05-05 20:35 | 48.30225 | 8.28935 | 31062 ft | 430 kts | 173° |
| 2026-05-05 20:36 | 48.24320 | 8.30355 | 31071 ft | 430 kts | 173° |
| 2026-05-05 20:36 | 48.18457 | 8.31769 | 31071 ft | 429 kts | 173° |
| 2026-05-05 20:37 | 48.12521 | 8.32160 | 31074 ft | 427 kts | 182° |
| 2026-05-05 20:37 | 48.06577 | 8.32278 | 31086 ft | 427 kts | 181° |
| 2026-05-05 20:38 | 48.00640 | 8.32346 | 31084 ft | 427 kts | 181° |
| 2026-05-05 20:38 | 47.94732 | 8.32436 | 31087 ft | 427 kts | 181° |
| 2026-05-05 20:39 | 47.88810 | 8.32518 | 31091 ft | 425 kts | 182° |
| 2026-05-05 20:39 | 47.82895 | 8.32599 | 31094 ft | 425 kts | 181° |
| 2026-05-05 20:40 | 47.76980 | 8.32682 | 31099 ft | 425 kts | 182° |
| 2026-05-05 20:40 | 47.71067 | 8.32764 | 31098 ft | 425 kts | 181° |
| 2026-05-05 20:41 | 47.65171 | 8.32847 | 31096 ft | 423 kts | 182° |
| 2026-05-05 20:41 | 47.59319 | 8.32927 | 31096 ft | 424 kts | 182° |
| 2026-05-05 20:42 | 47.53425 | 8.33009 | 31097 ft | 423 kts | 182° |
| 2026-05-05 20:42 | 47.47538 | 8.33090 | 31089 ft | 423 kts | 182° |
| 2026-05-05 20:43 | 47.41535 | 8.33173 | 31098 ft | 442 kts | 182° |
| 2026-05-05 20:43 | 47.35591 | 8.33251 | 31106 ft | 462 kts | 183° |
| 2026-05-05 20:44 | 47.29604 | 8.33399 | 31101 ft | 478 kts | 179° |
| 2026-05-05 20:44 | 47.22979 | 8.34339 | 31109 ft | 484 kts | 179° |
| 2026-05-05 20:45 | 47.13260 | 8.35644 | 31108 ft | 485 kts | 178° |
| 2026-05-05 20:45 | 47.06553 | 8.36564 | 31091 ft | 481 kts | 179° |
| 2026-05-05 20:46 | 46.99903 | 8.37465 | 31116 ft | 479 kts | 179° |
| 2026-05-05 20:46 | 46.93265 | 8.38370 | 31118 ft | 477 kts | 179° |
| 2026-05-05 20:47 | 46.86718 | 8.39255 | 31112 ft | 478 kts | 179° |
| 2026-05-05 20:47 | 46.80156 | 8.40144 | 31115 ft | 477 kts | 179° |
| 2026-05-05 20:48 | 46.73551 | 8.41032 | 31123 ft | 477 kts | 179° |
| 2026-05-05 20:48 | 46.66949 | 8.41921 | 31114 ft | 476 kts | 179° |
| 2026-05-05 20:49 | 46.60379 | 8.42805 | 31127 ft | 473 kts | 180° |
| 2026-05-05 20:49 | 46.53828 | 8.43682 | 31142 ft | 473 kts | 180° |
| 2026-05-05 20:50 | 46.47321 | 8.44544 | 31155 ft | 473 kts | 180° |
| 2026-05-05 20:50 | 46.40768 | 8.45421 | 31163 ft | 474 kts | 180° |
| 2026-05-05 20:51 | 46.34199 | 8.46300 | 31150 ft | 475 kts | 180° |
| 2026-05-05 20:51 | 46.27615 | 8.47163 | 31169 ft | 475 kts | 180° |
| 2026-05-05 20:52 | 46.21095 | 8.47086 | 31170 ft | 466 kts | 191° |
| 2026-05-05 20:52 | 46.14837 | 8.44982 | 31181 ft | 456 kts | 202° |
| 2026-05-05 20:53 | 46.12039 | 8.43337 | 31151 ft | 415 kts | 207° |
| 2026-05-05 20:53 | 46.09562 | 8.41447 | 30995 ft | 410 kts | 212° |
| 2026-05-05 20:53 | 46.04949 | 8.36589 | 30982 ft | 414 kts | 222° |
| 2026-05-05 20:54 | 46.01043 | 8.30507 | 31004 ft | 415 kts | 232° |
| 2026-05-05 20:54 | 45.98794 | 8.23244 | 30965 ft | 386 kts | 261° |
| 2026-05-05 20:55 | 45.99036 | 8.15455 | 31001 ft | 391 kts | 268° |
| 2026-05-05 20:55 | 45.99624 | 8.07670 | 30984 ft | 395 kts | 274° |
| 2026-05-05 20:56 | 46.01539 | 8.00266 | 30943 ft | 419 kts | 302° |
| 2026-05-05 20:56 | 46.03833 | 7.97545 | 30984 ft | 441 kts | 322° |
| 2026-05-05 20:56 | 46.06573 | 7.95504 | 30989 ft | 443 kts | 325° |
| 2026-05-05 20:57 | 46.11895 | 7.91146 | 30984 ft | 442 kts | 325° |
| 2026-05-05 20:57 | 46.17599 | 7.87683 | 30953 ft | 451 kts | 336° |
| 2026-05-05 20:58 | 46.23816 | 7.86007 | 30957 ft | 456 kts | 347° |
| 2026-05-05 20:58 | 46.27028 | 7.85827 | 30942 ft | 466 kts | 358° |
| 2026-05-05 20:58 | 46.30254 | 7.86415 | 30952 ft | 469 kts | 8° |
| 2026-05-05 20:59 | 46.36398 | 7.89764 | 30950 ft | 476 kts | 28° |
| 2026-05-05 20:59 | 46.41543 | 7.95703 | 30928 ft | 479 kts | 48° |
| 2026-05-05 21:00 | 46.45189 | 8.03680 | 30937 ft | 474 kts | 68° |
| 2026-05-05 21:00 | 46.46959 | 8.12772 | 30940 ft | 467 kts | 88° |
| 2026-05-05 21:01 | 46.46769 | 8.22022 | 30945 ft | 453 kts | 107° |
| 2026-05-05 21:01 | 46.44786 | 8.30517 | 30964 ft | 439 kts | 124° |
| 2026-05-05 21:02 | 46.41350 | 8.37592 | 30973 ft | 423 kts | 141° |
| 2026-05-05 21:02 | 46.36878 | 8.42836 | 30963 ft | 407 kts | 156° |
| 2026-05-05 21:03 | 46.31803 | 8.46059 | 30977 ft | 397 kts | 171° |
| 2026-05-05 21:03 | 46.26442 | 8.47297 | 30983 ft | 387 kts | 182° |
| 2026-05-05 21:04 | 46.21142 | 8.46729 | 30991 ft | 379 kts | 195° |
| 2026-05-05 21:04 | 46.16191 | 8.44339 | 30993 ft | 373 kts | 208° |
| 2026-05-05 21:05 | 46.11831 | 8.40333 | 31001 ft | 372 kts | 220° |
| 2026-05-05 21:05 | 46.08273 | 8.34953 | 31013 ft | 372 kts | 232° |
| 2026-05-05 21:06 | 46.05717 | 8.28517 | 30997 ft | 377 kts | 244° |
| 2026-05-05 21:06 | 46.04274 | 8.21309 | 30350 ft | 369 kts | 256° |
| 2026-05-05 21:07 | 46.04032 | 8.17581 | 28821 ft | 380 kts | 263° |
| 2026-05-05 21:07 | 46.04114 | 8.13778 | 27746 ft | 380 kts | 269° |
| 2026-05-05 21:07 | 46.04515 | 8.10014 | 26677 ft | 381 kts | 276° |
| 2026-05-05 21:07 | 46.05234 | 8.06358 | 25698 ft | 378 kts | 283° |
| 2026-05-05 21:08 | 46.06251 | 8.02867 | 24624 ft | 380 kts | 290° |
| 2026-05-05 21:08 | 46.07575 | 7.99559 | 23704 ft | 382 kts | 297° |
| 2026-05-05 21:08 | 46.09196 | 7.96478 | 22999 ft | 385 kts | 305° |
| 2026-05-05 21:08 | 46.11015 | 7.93787 | 22971 ft | 383 kts | 313° |
| 2026-05-05 21:09 | 46.13098 | 7.91374 | 22982 ft | 388 kts | 320° |
| 2026-05-05 21:09 | 46.15399 | 7.89337 | 22965 ft | 390 kts | 327° |
| 2026-05-05 21:09 | 46.17886 | 7.87722 | 22975 ft | 394 kts | 335° |
| 2026-05-05 21:09 | 46.20514 | 7.86571 | 22962 ft | 396 kts | 343° |
| 2026-05-05 21:10 | 46.23238 | 7.85918 | 22968 ft | 399 kts | 351° |
| 2026-05-05 21:10 | 46.26021 | 7.85683 | 22944 ft | 402 kts | 358° |
| 2026-05-05 21:10 | 46.28817 | 7.85984 | 22947 ft | 405 kts | 5° |
| 2026-05-05 21:10 | 46.31566 | 7.86815 | 22950 ft | 402 kts | 14° |
| 2026-05-05 21:11 | 46.33326 | 7.87646 | 22944 ft | 402 kts | 20° |
| 2026-05-05 21:11 | 46.35898 | 7.89331 | 22943 ft | 402 kts | 28° |
| 2026-05-05 21:11 | 46.38253 | 7.91454 | 22938 ft | 402 kts | 36° |
| 2026-05-05 21:11 | 46.40411 | 7.94022 | 22937 ft | 402 kts | 44° |